createdAt,value
2022-09-02T00:02:50.456Z,100771.06
2022-09-02T00:07:57.687Z,100765.91
2022-09-02T00:13:00.726Z,100762.09
2022-09-02T00:18:04.768Z,100759.97
2022-09-02T00:23:09.504Z,100764.66
2022-09-02T00:28:13.867Z,100762.94
2022-09-02T00:33:18.686Z,100756.13
2022-09-02T00:38:23.089Z,100756.38
2022-09-02T00:43:38.964Z,100754.91
2022-09-02T00:48:48.208Z,100751.47
2022-09-02T00:53:52.813Z,100741.69
2022-09-02T00:58:57.234Z,100740.25
2022-09-02T01:04:00.702Z,100744.91
2022-09-02T01:09:09.457Z,100742.66
2022-09-02T01:14:13.692Z,100747.63
2022-09-02T01:19:22.962Z,100740.50
2022-09-02T01:24:30.902Z,100737.66
2022-09-02T01:29:33.801Z,100729.13
2022-09-02T01:34:38.044Z,100733.66
2022-09-02T01:39:42.447Z,100726.69
2022-09-02T01:44:46.412Z,100728.69
2022-09-02T01:49:51.322Z,100725.84
2022-09-02T01:54:56.502Z,100725.38
2022-09-02T02:00:01.314Z,100721.13
2022-09-02T02:05:05.204Z,100712.00
2022-09-02T02:10:10.633Z,100708.84
2022-09-02T02:15:17.200Z,100707.28
2022-09-02T02:20:22.145Z,100699.47
2022-09-02T02:25:26.626Z,100700.00
2022-09-02T02:30:30.602Z,100693.03
2022-09-02T02:35:34.717Z,100695.41
2022-09-02T02:40:40.120Z,100692.75
2022-09-02T02:45:43.157Z,100695.31
2022-09-02T02:50:46.145Z,100687.03
2022-09-02T02:55:51.540Z,100690.47
2022-09-02T03:00:54.771Z,100685.34
2022-09-02T03:05:58.129Z,100689.97
2022-09-02T03:11:05.833Z,100682.72
2022-09-02T03:16:10.299Z,100683.44
2022-09-02T03:21:16.056Z,100688.31
2022-09-02T03:26:24.512Z,100681.66
2022-09-02T03:31:29.343Z,100685.00
2022-09-02T03:36:36.605Z,100685.41
2022-09-02T03:41:42.428Z,100683.84
2022-09-02T03:46:46.419Z,100674.03
2022-09-02T03:51:49.394Z,100676.03
2022-09-02T03:56:54.185Z,100672.22
2022-09-02T04:01:57.192Z,100669.91
2022-09-02T04:07:01.055Z,100675.66
2022-09-02T04:12:07.096Z,100668.69
2022-09-02T04:17:11.076Z,100673.50
2022-09-02T04:22:13.988Z,100675.72
2022-09-02T04:27:18.290Z,100670.97
2022-09-02T04:32:22.680Z,100665.13
2022-09-02T04:37:27.597Z,100664.44
2022-09-02T04:42:32.569Z,100668.72
2022-09-02T04:47:35.500Z,100673.13
2022-09-02T04:52:39.675Z,100669.44
2022-09-02T04:57:44.140Z,100670.06
2022-09-02T05:02:47.406Z,100670.81
2022-09-02T05:07:51.250Z,100670.31
2022-09-02T05:12:55.992Z,100666.41
2022-09-02T05:17:59.535Z,100666.16
2022-09-02T05:23:02.460Z,100659.38
2022-09-02T05:28:08.817Z,100652.53
2022-09-02T05:33:13.506Z,100653.81
2022-09-02T05:38:18.833Z,100639.22
2022-09-02T05:43:24.821Z,100650.91
2022-09-02T05:48:45.700Z,100651.19
2022-09-02T05:53:48.938Z,100656.03
2022-09-02T05:58:55.609Z,100654.81
2022-09-02T06:03:58.864Z,100652.44
2022-09-02T06:09:04.245Z,100651.91
2022-09-02T06:14:09.488Z,100648.25
2022-09-02T06:19:19.154Z,100649.53
2022-09-02T06:24:25.081Z,100643.50
2022-09-02T06:29:29.507Z,100641.44
2022-09-02T06:34:32.934Z,100633.41
2022-09-02T06:39:37.716Z,100633.84
2022-09-02T06:44:42.366Z,100635.75
2022-09-02T06:49:45.362Z,100634.38
2022-09-02T06:54:49.104Z,100630.13
2022-09-02T06:59:53.322Z,100638.91
2022-09-02T07:05:10.955Z,100626.34
2022-09-02T07:10:15.485Z,100627.72
2022-09-02T07:15:24.680Z,100629.13
2022-09-02T07:20:28.399Z,100630.78
2022-09-02T07:25:35.457Z,100623.22
2022-09-02T07:30:42.837Z,100616.59
2022-09-02T07:35:53.102Z,100625.13
2022-09-02T07:40:57.377Z,100628.16
2022-09-02T07:46:05.743Z,100626.47
2022-09-02T07:51:09.720Z,100618.28
2022-09-02T07:56:15.164Z,100624.22
2022-09-02T08:01:23.532Z,100618.75
2022-09-02T08:06:34.586Z,100616.13
2022-09-02T08:11:39.784Z,100613.91
2022-09-02T08:16:44.255Z,100610.06
2022-09-02T08:21:47.101Z,100615.06
2022-09-02T08:26:49.915Z,100608.75
2022-09-02T08:31:54.345Z,100598.81
2022-09-02T08:36:58.070Z,100592.13
2022-09-02T08:42:09.720Z,100597.03
2022-09-02T08:47:22.949Z,100598.16
2022-09-02T08:52:32.270Z,100587.09
2022-09-02T08:57:36.229Z,100586.28
2022-09-02T09:02:57.909Z,100578.94
2022-09-02T09:08:09.750Z,100575.94
2022-09-02T09:13:47.053Z,100571.63
2022-09-02T09:18:58.323Z,100570.19
2022-09-02T09:24:05.012Z,100582.75
2022-09-02T09:29:08.257Z,100570.91
2022-09-02T09:34:14.000Z,100561.84
2022-09-02T09:39:22.436Z,100557.69
2022-09-02T09:44:40.971Z,100547.47
2022-09-02T09:49:45.133Z,100551.16
2022-09-02T09:54:47.919Z,100540.19
2022-09-02T09:59:55.991Z,100539.13
2022-09-02T10:05:17.980Z,100526.44
2022-09-02T10:10:23.510Z,100520.59
2022-09-02T10:15:35.734Z,100517.41
2022-09-02T10:31:36.375Z,100495.94
2022-09-02T10:36:58.763Z,100499.53
2022-09-02T10:42:07.553Z,100479.41
2022-09-02T10:47:18.702Z,100472.38
2022-09-02T10:52:38.428Z,100482.97
2022-09-02T10:57:49.495Z,100480.59
2022-09-02T11:02:56.529Z,100467.00
2022-09-02T11:08:09.773Z,100464.06
2022-09-02T11:13:19.959Z,100461.44
2022-09-02T11:18:28.205Z,100444.59
2022-09-02T11:23:39.511Z,100450.66
2022-09-02T11:28:49.176Z,100454.59
2022-09-02T11:33:59.431Z,100454.19
2022-09-02T11:39:09.290Z,100438.06
2022-09-02T11:45:03.942Z,100448.13
2022-09-02T11:50:24.213Z,100433.13
2022-09-02T11:55:34.774Z,100429.38
2022-09-02T12:01:02.924Z,100424.44
2022-09-02T12:06:13.624Z,100427.34
2022-09-02T12:11:39.881Z,100420.13
2022-09-02T12:16:45.832Z,100410.97
2022-09-02T12:22:23.543Z,100408.63
2022-09-02T12:27:31.495Z,100404.94
2022-09-02T12:33:05.069Z,100396.31
2022-09-02T12:38:42.812Z,100381.94
2022-09-02T12:43:57.620Z,100376.25
2022-09-02T12:49:06.752Z,100377.06
2022-09-02T12:54:09.696Z,100368.56
2022-09-02T12:59:28.097Z,100359.41
2022-09-02T13:04:40.077Z,100363.56
2022-09-02T13:10:00.726Z,100371.78
2022-09-02T13:15:23.594Z,100372.59
2022-09-02T13:20:55.793Z,100367.97
2022-09-02T13:26:45.448Z,100360.28
2022-09-02T13:32:00.399Z,100354.00
2022-09-02T13:37:03.209Z,100362.00
2022-09-02T13:42:15.937Z,100365.41
2022-09-02T13:47:23.061Z,100359.69
2022-09-02T13:53:01.124Z,100360.94
2022-09-02T13:57:58.051Z,100372.31
2022-09-02T14:03:06.235Z,100364.06
2022-09-02T14:08:14.865Z,100357.81
2022-09-02T14:13:18.281Z,100350.66
2022-09-02T14:18:25.471Z,100338.22
2022-09-02T14:23:29.671Z,100339.94
2022-09-02T14:28:34.723Z,100330.78
2022-09-02T14:33:45.076Z,100336.72
2022-09-02T14:38:54.565Z,100321.44
2022-09-02T14:43:59.285Z,100320.38
2022-09-02T14:49:06.655Z,100317.78
2022-09-02T14:54:09.964Z,100322.97
2022-09-02T14:59:12.804Z,100308.69
2022-09-02T15:04:17.084Z,100320.09
2022-09-02T15:09:19.914Z,100315.88
2022-09-02T15:14:22.712Z,100317.91
2022-09-02T15:19:26.936Z,100306.63
2022-09-02T15:24:29.716Z,100310.53
2022-09-02T15:29:32.890Z,100298.97
2022-09-02T15:34:37.039Z,100292.00
2022-09-02T15:39:39.930Z,100290.25
2022-09-02T15:44:42.763Z,100283.84
2022-09-02T15:49:47.145Z,100279.44
2022-09-02T15:54:50.104Z,100278.72
2022-09-02T15:59:52.898Z,100277.69
2022-09-02T16:04:57.183Z,100270.84
2022-09-02T16:10:03.363Z,100265.91
2022-09-02T16:15:07.825Z,100257.22
2022-09-02T16:20:12.645Z,100247.28
2022-09-02T16:25:15.670Z,100249.28
2022-09-02T16:30:18.773Z,100246.34
2022-09-02T16:35:22.937Z,100238.72
2022-09-02T16:40:25.759Z,100236.19
2022-09-02T16:45:28.577Z,100226.03
2022-09-02T16:50:32.779Z,100229.31
2022-09-02T16:55:37.689Z,100219.66
2022-09-02T17:00:41.838Z,100213.81
2022-09-02T17:05:47.944Z,100211.25
2022-09-02T17:10:50.921Z,100216.91
2022-09-02T17:15:54.040Z,100222.50
2022-09-02T17:21:18.044Z,100215.66
2022-09-02T17:26:22.549Z,100208.16
2022-09-02T17:31:27.658Z,100215.94
2022-09-02T17:36:33.595Z,100215.47
2022-09-02T17:41:54.332Z,100221.47
2022-09-02T17:46:57.101Z,100223.09
2022-09-02T17:52:01.336Z,100227.16
2022-09-02T17:57:10.310Z,100235.53
2022-09-02T18:02:34.556Z,100233.09
2022-09-02T18:07:44.862Z,100235.16
2022-09-02T18:12:48.094Z,100233.41
2022-09-02T18:17:53.963Z,100231.88
2022-09-02T18:23:20.355Z,100229.97
2022-09-02T18:28:34.901Z,100241.44
2022-09-02T18:33:53.545Z,100242.06
2022-09-02T18:39:15.652Z,100243.69
2022-09-02T18:44:34.016Z,100250.13
2022-09-02T18:49:39.590Z,100247.94
2022-09-02T18:54:50.649Z,100257.06
2022-09-02T19:00:01.173Z,100253.28
2022-09-02T19:05:07.170Z,100249.25
2022-09-02T19:10:14.150Z,100257.19
2022-09-02T19:15:17.417Z,100275.44
2022-09-02T19:20:20.318Z,100270.94
2022-09-02T19:25:27.471Z,100268.84
2022-09-02T19:30:36.030Z,100274.94
2022-09-02T19:35:46.423Z,100281.84
2022-09-02T19:40:50.564Z,100274.91
2022-09-02T19:45:53.577Z,100282.31
2022-09-02T19:50:56.500Z,100273.81
2022-09-02T19:56:01.325Z,100269.06
2022-09-02T20:01:05.493Z,100281.91
2022-09-02T20:06:08.720Z,100288.09
2022-09-02T20:11:12.963Z,100292.75
2022-09-02T20:16:20.119Z,100289.38
2022-09-02T20:21:24.826Z,100300.19
2022-09-02T20:26:49.138Z,100291.56
2022-09-02T20:32:07.474Z,100294.81
2022-09-02T20:37:23.140Z,100297.41
2022-09-02T20:42:48.313Z,100299.22
2022-09-02T20:48:06.146Z,100305.50
2022-09-02T20:53:25.215Z,100301.09
2022-09-02T20:58:40.826Z,100301.09
2022-09-02T21:03:52.862Z,100299.94
2022-09-02T21:09:02.251Z,100298.47
2022-09-02T21:14:13.578Z,100297.91
2022-09-02T21:19:22.052Z,100291.00
2022-09-02T21:24:32.540Z,100286.06
2022-09-02T21:29:46.267Z,100284.69
2022-09-02T21:34:55.223Z,100276.25
2022-09-02T21:40:04.705Z,100282.38
2022-09-02T21:45:20.088Z,100283.72
2022-09-02T21:50:28.109Z,100287.63
2022-09-02T21:55:54.420Z,100289.19
2022-09-02T22:01:04.065Z,100294.44
2022-09-02T22:06:14.600Z,100289.84
2022-09-02T22:11:26.577Z,100287.00
2022-09-02T22:16:45.707Z,100291.25
2022-09-02T22:21:50.749Z,100290.53
2022-09-02T22:26:56.897Z,100283.09
2022-09-02T22:32:02.706Z,100278.34
2022-09-02T22:37:09.594Z,100286.16
2022-09-02T22:42:21.372Z,100279.16
2022-09-02T22:47:43.824Z,100275.31
2022-09-02T22:52:54.573Z,100267.81
2022-09-02T22:58:05.324Z,100260.16
2022-09-02T23:03:16.917Z,100258.75
2022-09-02T23:08:22.033Z,100260.47
2022-09-02T23:13:43.506Z,100259.94
2022-09-02T23:19:04.015Z,100262.75
2022-09-02T23:24:19.836Z,100256.91
2022-09-02T23:29:26.430Z,100246.84
2022-09-02T23:34:48.070Z,100250.00
2022-09-02T23:40:00.836Z,100243.47
2022-09-02T23:45:10.145Z,100242.97
2022-09-02T23:50:32.366Z,100241.34
2022-09-02T23:55:44.601Z,100234.72
